Terminal Aerodrome Forecast
Issued by NWS

Current Version | Previous Version | Text Only | Print | Product List | Glossary On
Versions: 1 2 3 4 5 6 7 8 9 10 11 12 13
000
FTUS46 KLOX 251700
TAFSBA
TAF
KSBA 251724Z 2518/2618 VRB03KT P6SM SKC
     FM252200 24007KT P6SM SKC
     FM260300 VRB03KT P6SM SKC=

USA.gov is the U.S. government's official web portal to all federal, state and local government web resources and services.